sensor_id;sensor_type;location;lat;lon;timestamp;P1;durP1;ratioP1;P2;durP2;ratioP2
77214;SDS011;66210;53.282;9.864;2022-12-18T12:33:10;17.60;;;11.88;;
77214;SDS011;66210;53.282;9.864;2022-12-18T12:35:46;19.02;;;11.95;;
77214;SDS011;66210;53.282;9.864;2022-12-18T12:38:19;17.88;;;11.43;;
77214;SDS011;66210;53.282;9.864;2022-12-18T12:42:41;16.52;;;11.02;;
77214;SDS011;66210;53.282;9.864;2022-12-18T12:45:32;17.40;;;11.20;;
77214;SDS011;66210;53.282;9.864;2022-12-18T12:49:19;17.00;;;11.50;;
77214;SDS011;66210;53.282;9.864;2022-12-18T12:51:53;17.20;;;11.75;;
77214;SDS011;66210;53.282;9.864;2022-12-18T12:54:30;16.63;;;11.50;;
77214;SDS011;66210;53.282;9.864;2022-12-18T12:57:03;18.05;;;12.38;;
77214;SDS011;66210;53.282;9.864;2022-12-18T12:59:51;17.38;;;12.27;;
77214;SDS011;66210;53.282;9.864;2022-12-18T13:02:33;18.15;;;12.10;;
77214;SDS011;66210;53.282;9.864;2022-12-18T13:07:32;21.65;;;11.88;;
77214;SDS011;66210;53.282;9.864;2022-12-18T13:12:57;19.65;;;12.80;;
77214;SDS011;66210;53.282;9.864;2022-12-18T13:15:40;17.02;;;11.25;;
77214;SDS011;66210;53.282;9.864;2022-12-18T13:30:59;16.63;;;11.70;;
77214;SDS011;66210;53.282;9.864;2022-12-18T13:36:31;19.10;;;12.10;;
77214;SDS011;66210;53.282;9.864;2022-12-18T13:41:52;14.98;;;10.98;;
77214;SDS011;66210;53.282;9.864;2022-12-18T13:44:23;18.05;;;11.88;;
77214;SDS011;66210;53.282;9.864;2022-12-18T13:47:25;16.50;;;11.55;;
77214;SDS011;66210;53.282;9.864;2022-12-18T13:49:54;17.35;;;11.95;;
77214;SDS011;66210;53.282;9.864;2022-12-18T13:52:24;14.55;;;10.80;;
77214;SDS011;66210;53.282;9.864;2022-12-18T13:54:55;17.52;;;11.13;;
77214;SDS011;66210;53.282;9.864;2022-12-18T13:57:41;15.35;;;10.38;;
77214;SDS011;66210;53.282;9.864;2022-12-18T14:00:26;14.60;;;10.95;;
77214;SDS011;66210;53.282;9.864;2022-12-18T14:02:58;15.30;;;10.60;;
77214;SDS011;66210;53.282;9.864;2022-12-18T14:05:26;16.85;;;11.43;;
77214;SDS011;66210;53.282;9.864;2022-12-18T14:07:54;15.13;;;10.52;;
77214;SDS011;66210;53.282;9.864;2022-12-18T14:10:21;17.45;;;10.85;;
77214;SDS011;66210;53.282;9.864;2022-12-18T14:13:09;15.52;;;11.00;;
77214;SDS011;66210;53.282;9.864;2022-12-18T14:15:43;14.85;;;10.88;;
77214;SDS011;66210;53.282;9.864;2022-12-18T14:21:03;15.57;;;10.82;;
77214;SDS011;66210;53.282;9.864;2022-12-18T14:26:20;15.60;;;10.50;;
77214;SDS011;66210;53.282;9.864;2022-12-18T14:28:59;14.38;;;10.95;;
77214;SDS011;66210;53.282;9.864;2022-12-18T14:31:28;15.13;;;10.55;;
77214;SDS011;66210;53.282;9.864;2022-12-18T14:33:56;13.68;;;10.75;;
77214;SDS011;66210;53.282;9.864;2022-12-18T14:36:25;14.95;;;11.15;;
77214;SDS011;66210;53.282;9.864;2022-12-18T14:38:54;16.42;;;11.32;;
77214;SDS011;66210;53.282;9.864;2022-12-18T14:41:24;15.75;;;10.63;;
77214;SDS011;66210;53.282;9.864;2022-12-18T14:43:51;13.02;;;9.70;;
77214;SDS011;66210;53.282;9.864;2022-12-18T14:46:27;13.65;;;10.45;;
77214;SDS011;66210;53.282;9.864;2022-12-18T14:51:47;15.40;;;10.90;;
77214;SDS011;66210;53.282;9.864;2022-12-18T14:54:16;14.10;;;10.18;;
77214;SDS011;66210;53.282;9.864;2022-12-18T14:56:44;15.27;;;10.10;;
77214;SDS011;66210;53.282;9.864;2022-12-18T14:59:13;15.85;;;10.80;;
77214;SDS011;66210;53.282;9.864;2022-12-18T15:07:18;15.63;;;10.75;;
77214;SDS011;66210;53.282;9.864;2022-12-18T15:15:05;14.55;;;10.80;;
77214;SDS011;66210;53.282;9.864;2022-12-18T15:26:17;16.52;;;10.05;;
77214;SDS011;66210;53.282;9.864;2022-12-18T15:28:46;17.17;;;11.20;;
77214;SDS011;66210;53.282;9.864;2022-12-18T15:36:18;14.40;;;10.57;;
77214;SDS011;66210;53.282;9.864;2022-12-18T15:38:51;15.20;;;10.38;;
77214;SDS011;66210;53.282;9.864;2022-12-18T15:41:21;15.57;;;10.48;;
77214;SDS011;66210;53.282;9.864;2022-12-18T15:43:50;15.38;;;11.02;;
77214;SDS011;66210;53.282;9.864;2022-12-18T15:46:19;14.02;;;10.55;;
77214;SDS011;66210;53.282;9.864;2022-12-18T15:48:49;13.93;;;10.48;;
77214;SDS011;66210;53.282;9.864;2022-12-18T15:51:31;15.00;;;10.65;;
77214;SDS011;66210;53.282;9.864;2022-12-18T15:54:00;15.85;;;10.85;;
77214;SDS011;66210;53.282;9.864;2022-12-18T15:56:27;12.00;;;10.00;;
77214;SDS011;66210;53.282;9.864;2022-12-18T15:59:13;15.13;;;10.30;;
77214;SDS011;66210;53.282;9.864;2022-12-18T16:04:17;13.32;;;9.95;;
77214;SDS011;66210;53.282;9.864;2022-12-18T16:06:46;15.30;;;10.43;;
77214;SDS011;66210;53.282;9.864;2022-12-18T16:09:33;13.85;;;11.20;;
77214;SDS011;66210;53.282;9.864;2022-12-18T16:12:00;13.35;;;9.95;;
77214;SDS011;66210;53.282;9.864;2022-12-18T16:14:27;14.25;;;10.32;;
77214;SDS011;66210;53.282;9.864;2022-12-18T16:16:56;12.65;;;9.63;;
77214;SDS011;66210;53.282;9.864;2022-12-18T16:19:24;14.90;;;9.60;;
77214;SDS011;66210;53.282;9.864;2022-12-18T16:21:51;14.27;;;10.05;;
77214;SDS011;66210;53.282;9.864;2022-12-18T16:24:19;15.55;;;10.65;;
77214;SDS011;66210;53.282;9.864;2022-12-18T16:26:50;13.48;;;9.50;;
77214;SDS011;66210;53.282;9.864;2022-12-18T16:29:18;13.80;;;9.57;;
77214;SDS011;66210;53.282;9.864;2022-12-18T16:31:45;12.40;;;9.57;;
77214;SDS011;66210;53.282;9.864;2022-12-18T16:34:19;13.48;;;9.82;;
77214;SDS011;66210;53.282;9.864;2022-12-18T16:36:56;13.23;;;9.90;;
77214;SDS011;66210;53.282;9.864;2022-12-18T16:39:30;15.57;;;10.30;;
77214;SDS011;66210;53.282;9.864;2022-12-18T16:41:58;13.00;;;9.80;;
77214;SDS011;66210;53.282;9.864;2022-12-18T16:44:27;14.95;;;10.32;;
77214;SDS011;66210;53.282;9.864;2022-12-18T16:46:53;13.65;;;10.05;;
77214;SDS011;66210;53.282;9.864;2022-12-18T16:49:20;15.68;;;9.63;;
77214;SDS011;66210;53.282;9.864;2022-12-18T16:51:47;13.23;;;10.82;;
77214;SDS011;66210;53.282;9.864;2022-12-18T16:54:14;14.38;;;9.98;;
77214;SDS011;66210;53.282;9.864;2022-12-18T16:56:44;15.35;;;9.85;;
77214;SDS011;66210;53.282;9.864;2022-12-18T16:59:13;14.75;;;10.25;;
77214;SDS011;66210;53.282;9.864;2022-12-18T17:01:40;14.68;;;10.40;;
77214;SDS011;66210;53.282;9.864;2022-12-18T17:04:07;13.07;;;9.35;;
77214;SDS011;66210;53.282;9.864;2022-12-18T17:06:35;13.77;;;10.15;;
77214;SDS011;66210;53.282;9.864;2022-12-18T17:09:06;13.73;;;9.70;;
77214;SDS011;66210;53.282;9.864;2022-12-18T17:11:34;14.48;;;10.32;;
77214;SDS011;66210;53.282;9.864;2022-12-18T17:14:12;15.70;;;10.98;;
77214;SDS011;66210;53.282;9.864;2022-12-18T17:16:40;14.18;;;11.10;;
77214;SDS011;66210;53.282;9.864;2022-12-18T17:19:07;14.15;;;10.90;;
77214;SDS011;66210;53.282;9.864;2022-12-18T17:21:42;13.70;;;9.80;;
77214;SDS011;66210;53.282;9.864;2022-12-18T17:24:09;13.77;;;9.68;;
77214;SDS011;66210;53.282;9.864;2022-12-18T17:26:36;12.48;;;9.60;;
77214;SDS011;66210;53.282;9.864;2022-12-18T17:29:02;13.90;;;10.25;;
77214;SDS011;66210;53.282;9.864;2022-12-18T17:31:29;13.18;;;10.50;;
77214;SDS011;66210;53.282;9.864;2022-12-18T17:33:56;13.40;;;10.23;;
77214;SDS011;66210;53.282;9.864;2022-12-18T17:36:23;13.32;;;10.15;;
77214;SDS011;66210;53.282;9.864;2022-12-18T17:38:50;13.32;;;10.90;;
77214;SDS011;66210;53.282;9.864;2022-12-18T17:41:17;13.43;;;10.85;;
77214;SDS011;66210;53.282;9.864;2022-12-18T17:43:49;15.07;;;10.55;;
77214;SDS011;66210;53.282;9.864;2022-12-18T17:46:17;15.60;;;10.52;;
77214;SDS011;66210;53.282;9.864;2022-12-18T17:48:44;13.65;;;10.27;;
77214;SDS011;66210;53.282;9.864;2022-12-18T17:51:10;13.27;;;10.05;;
77214;SDS011;66210;53.282;9.864;2022-12-18T17:53:37;16.27;;;11.45;;
77214;SDS011;66210;53.282;9.864;2022-12-18T17:56:06;15.50;;;11.50;;
77214;SDS011;66210;53.282;9.864;2022-12-18T17:58:34;16.10;;;11.80;;
77214;SDS011;66210;53.282;9.864;2022-12-18T18:01:02;16.17;;;11.88;;
77214;SDS011;66210;53.282;9.864;2022-12-18T18:03:30;18.52;;;11.25;;
77214;SDS011;66210;53.282;9.864;2022-12-18T18:05:59;15.93;;;11.27;;
77214;SDS011;66210;53.282;9.864;2022-12-18T18:08:26;15.15;;;10.93;;
77214;SDS011;66210;53.282;9.864;2022-12-18T18:10:54;14.48;;;11.45;;
77214;SDS011;66210;53.282;9.864;2022-12-18T18:13:22;15.25;;;11.57;;
77214;SDS011;66210;53.282;9.864;2022-12-18T18:16:12;16.17;;;11.40;;
77214;SDS011;66210;53.282;9.864;2022-12-18T18:18:39;17.02;;;11.18;;
77214;SDS011;66210;53.282;9.864;2022-12-18T18:21:06;14.65;;;11.27;;
77214;SDS011;66210;53.282;9.864;2022-12-18T18:23:33;16.10;;;11.40;;
77214;SDS011;66210;53.282;9.864;2022-12-18T18:26:04;16.58;;;11.73;;
77214;SDS011;66210;53.282;9.864;2022-12-18T18:28:31;18.00;;;11.48;;
77214;SDS011;66210;53.282;9.864;2022-12-18T18:31:03;16.52;;;11.50;;
77214;SDS011;66210;53.282;9.864;2022-12-18T18:33:30;13.68;;;10.80;;
77214;SDS011;66210;53.282;9.864;2022-12-18T18:35:57;15.02;;;11.10;;
77214;SDS011;66210;53.282;9.864;2022-12-18T18:38:24;14.75;;;11.20;;
77214;SDS011;66210;53.282;9.864;2022-12-18T18:41:00;14.40;;;10.57;;
77214;SDS011;66210;53.282;9.864;2022-12-18T18:43:28;16.55;;;11.95;;
77214;SDS011;66210;53.282;9.864;2022-12-18T18:45:58;15.43;;;10.52;;
77214;SDS011;66210;53.282;9.864;2022-12-18T18:48:26;14.90;;;11.05;;
77214;SDS011;66210;53.282;9.864;2022-12-18T18:51:01;14.80;;;11.38;;
77214;SDS011;66210;53.282;9.864;2022-12-18T18:53:30;15.30;;;10.98;;
77214;SDS011;66210;53.282;9.864;2022-12-18T18:55:57;18.10;;;11.73;;
77214;SDS011;66210;53.282;9.864;2022-12-18T19:01:11;15.73;;;10.82;;
77214;SDS011;66210;53.282;9.864;2022-12-18T19:03:39;15.05;;;11.20;;
77214;SDS011;66210;53.282;9.864;2022-12-18T19:06:09;14.23;;;10.85;;
77214;SDS011;66210;53.282;9.864;2022-12-18T19:08:38;13.43;;;10.75;;
77214;SDS011;66210;53.282;9.864;2022-12-18T19:11:06;15.43;;;11.75;;
77214;SDS011;66210;53.282;9.864;2022-12-18T19:14:02;15.43;;;10.95;;
77214;SDS011;66210;53.282;9.864;2022-12-18T19:16:30;14.75;;;10.50;;
77214;SDS011;66210;53.282;9.864;2022-12-18T19:18:57;14.02;;;10.85;;
77214;SDS011;66210;53.282;9.864;2022-12-18T19:21:27;15.02;;;10.32;;
77214;SDS011;66210;53.282;9.864;2022-12-18T19:23:56;14.68;;;10.63;;
77214;SDS011;66210;53.282;9.864;2022-12-18T19:26:23;16.58;;;11.40;;
77214;SDS011;66210;53.282;9.864;2022-12-18T19:28:53;15.27;;;10.95;;
77214;SDS011;66210;53.282;9.864;2022-12-18T19:31:21;16.33;;;11.38;;
77214;SDS011;66210;53.282;9.864;2022-12-18T19:33:54;13.70;;;11.00;;
77214;SDS011;66210;53.282;9.864;2022-12-18T19:36:22;14.02;;;11.25;;
77214;SDS011;66210;53.282;9.864;2022-12-18T19:38:51;15.23;;;11.35;;
77214;SDS011;66210;53.282;9.864;2022-12-18T19:41:19;13.15;;;10.70;;
77214;SDS011;66210;53.282;9.864;2022-12-18T19:43:47;17.40;;;11.20;;
77214;SDS011;66210;53.282;9.864;2022-12-18T19:46:15;23.08;;;15.02;;
77214;SDS011;66210;53.282;9.864;2022-12-18T19:48:43;19.83;;;13.93;;
77214;SDS011;66210;53.282;9.864;2022-12-18T19:51:14;20.05;;;14.20;;
77214;SDS011;66210;53.282;9.864;2022-12-18T19:53:42;18.40;;;12.82;;
77214;SDS011;66210;53.282;9.864;2022-12-18T19:56:10;18.08;;;12.32;;
77214;SDS011;66210;53.282;9.864;2022-12-18T20:01:06;16.85;;;12.15;;
77214;SDS011;66210;53.282;9.864;2022-12-18T20:03:38;15.65;;;11.90;;
77214;SDS011;66210;53.282;9.864;2022-12-18T20:06:13;18.50;;;12.60;;
77214;SDS011;66210;53.282;9.864;2022-12-18T20:08:44;16.73;;;12.13;;
77214;SDS011;66210;53.282;9.864;2022-12-18T20:11:12;17.42;;;13.23;;
77214;SDS011;66210;53.282;9.864;2022-12-18T20:13:38;15.18;;;11.48;;
77214;SDS011;66210;53.282;9.864;2022-12-18T20:16:05;20.20;;;12.45;;
77214;SDS011;66210;53.282;9.864;2022-12-18T20:18:32;17.25;;;11.80;;
77214;SDS011;66210;53.282;9.864;2022-12-18T20:21:02;14.50;;;11.30;;
77214;SDS011;66210;53.282;9.864;2022-12-18T20:23:30;15.65;;;11.20;;
77214;SDS011;66210;53.282;9.864;2022-12-18T20:25:59;16.02;;;11.73;;
77214;SDS011;66210;53.282;9.864;2022-12-18T20:28:25;16.98;;;11.43;;
77214;SDS011;66210;53.282;9.864;2022-12-18T20:30:57;16.55;;;12.00;;
77214;SDS011;66210;53.282;9.864;2022-12-18T20:33:25;17.55;;;12.85;;
77214;SDS011;66210;53.282;9.864;2022-12-18T20:35:52;15.77;;;11.18;;
77214;SDS011;66210;53.282;9.864;2022-12-18T20:38:20;14.80;;;11.05;;
77214;SDS011;66210;53.282;9.864;2022-12-18T20:40:48;16.50;;;11.63;;
77214;SDS011;66210;53.282;9.864;2022-12-18T20:43:15;16.05;;;11.43;;
77214;SDS011;66210;53.282;9.864;2022-12-18T20:45:42;14.88;;;11.40;;
77214;SDS011;66210;53.282;9.864;2022-12-18T20:48:10;16.50;;;12.18;;
77214;SDS011;66210;53.282;9.864;2022-12-18T20:50:37;17.20;;;11.70;;
77214;SDS011;66210;53.282;9.864;2022-12-18T20:53:03;15.23;;;11.13;;
77214;SDS011;66210;53.282;9.864;2022-12-18T20:55:30;15.30;;;11.70;;
77214;SDS011;66210;53.282;9.864;2022-12-18T20:57:56;15.45;;;11.82;;
77214;SDS011;66210;53.282;9.864;2022-12-18T21:00:23;15.73;;;11.05;;
